createdAt,value
2023-05-09T00:00:15.260Z,4.47
2023-05-09T00:00:46.928Z,4.20
2023-05-09T00:01:18.580Z,4.10
2023-05-09T00:01:50.242Z,3.85
2023-05-09T00:02:22.361Z,4.30
2023-05-09T00:02:54.422Z,4.13
2023-05-09T00:03:26.129Z,4.20
2023-05-09T00:03:59.464Z,4.53
2023-05-09T00:04:32.823Z,4.50
2023-05-09T00:05:05.928Z,4.20
2023-05-09T00:05:37.539Z,4.35
2023-05-09T00:06:09.644Z,4.07
2023-05-09T00:06:41.323Z,4.55
2023-05-09T00:07:13.031Z,4.55
2023-05-09T00:07:44.631Z,4.03
2023-05-09T00:08:17.048Z,4.47
2023-05-09T00:08:48.784Z,4.03
2023-05-09T00:09:20.732Z,4.20
2023-05-09T00:09:52.319Z,4.28
2023-05-09T00:10:23.949Z,4.18
2023-05-09T00:10:55.651Z,4.30
2023-05-09T00:11:27.391Z,4.22
2023-05-09T00:11:58.985Z,4.38
2023-05-09T00:12:31.118Z,4.47
2023-05-09T00:13:02.857Z,4.50
2023-05-09T00:13:34.873Z,4.45
2023-05-09T00:14:06.804Z,4.38
2023-05-09T00:14:40.763Z,4.20
2023-05-09T00:15:13.194Z,4.40
2023-05-09T00:15:45.069Z,4.38
2023-05-09T00:16:17.976Z,4.57
2023-05-09T00:16:50.757Z,4.47
2023-05-09T00:17:23.792Z,4.07
2023-05-09T00:17:55.481Z,4.20
2023-05-09T00:18:28.524Z,4.15
2023-05-09T00:19:00.344Z,4.45
2023-05-09T00:19:32.723Z,4.38
2023-05-09T00:20:09.416Z,4.85
2023-05-09T00:20:41.240Z,4.40
2023-05-09T00:21:12.936Z,4.53
2023-05-09T00:21:44.589Z,4.60
2023-05-09T00:22:17.213Z,4.63
2023-05-09T00:22:48.854Z,4.13
2023-05-09T00:23:20.501Z,4.72
2023-05-09T00:23:52.145Z,4.68
2023-05-09T00:24:23.758Z,4.50
2023-05-09T00:24:55.679Z,4.28
2023-05-09T00:25:27.591Z,4.15
2023-05-09T00:25:59.688Z,4.22
2023-05-09T00:26:31.311Z,4.60
2023-05-09T00:27:02.922Z,4.63
2023-05-09T00:27:34.729Z,4.28
2023-05-09T00:28:06.572Z,4.18
2023-05-09T00:28:38.212Z,4.60
2023-05-09T00:29:09.819Z,4.50
2023-05-09T00:29:41.406Z,4.20
2023-05-09T00:30:13.194Z,4.45
2023-05-09T00:30:44.986Z,4.45
2023-05-09T00:31:16.601Z,3.90
2023-05-09T00:31:48.638Z,4.60
2023-05-09T00:32:20.557Z,4.22
2023-05-09T00:32:52.227Z,4.35
2023-05-09T00:33:27.028Z,4.55
2023-05-09T00:33:58.676Z,4.30
2023-05-09T00:34:30.280Z,4.35
2023-05-09T00:35:01.963Z,4.47
2023-05-09T00:35:34.868Z,4.40
2023-05-09T00:36:07.016Z,4.40
2023-05-09T00:36:38.629Z,4.38
2023-05-09T00:37:10.488Z,4.55
2023-05-09T00:37:42.089Z,4.72
2023-05-09T00:38:13.848Z,4.03
2023-05-09T00:38:45.466Z,4.38
2023-05-09T00:39:17.189Z,5.28
2023-05-09T00:39:48.909Z,4.53
2023-05-09T00:40:21.116Z,4.60
2023-05-09T00:40:52.732Z,4.72
2023-05-09T00:41:24.366Z,5.20
2023-05-09T00:41:57.270Z,4.78
2023-05-09T00:42:28.924Z,4.32
2023-05-09T00:43:00.599Z,4.57
2023-05-09T00:43:32.633Z,4.50
2023-05-09T00:44:04.461Z,4.80
2023-05-09T00:44:36.162Z,4.82
2023-05-09T00:45:08.698Z,5.30
2023-05-09T00:45:40.307Z,4.68
2023-05-09T00:46:12.339Z,5.10
2023-05-09T00:46:44.420Z,4.03
2023-05-09T00:47:16.193Z,4.68
2023-05-09T00:47:48.195Z,4.97
2023-05-09T00:48:19.833Z,4.90
2023-05-09T00:48:52.844Z,4.70
2023-05-09T00:49:24.459Z,4.80
2023-05-09T00:49:57.204Z,4.90
2023-05-09T00:50:28.928Z,3.95
2023-05-09T00:51:01.446Z,4.80
2023-05-09T00:51:33.429Z,4.45
2023-05-09T00:52:05.672Z,4.43
2023-05-09T00:52:37.807Z,4.43
2023-05-09T00:53:10.366Z,4.38
2023-05-09T00:53:42.100Z,4.45
2023-05-09T00:54:14.050Z,4.22
2023-05-09T00:54:45.643Z,4.57
2023-05-09T00:55:17.916Z,4.43
2023-05-09T00:55:49.766Z,4.20
2023-05-09T00:56:22.092Z,4.80
2023-05-09T00:56:54.282Z,5.00
2023-05-09T00:57:26.071Z,4.55
2023-05-09T00:57:57.848Z,4.57
2023-05-09T00:58:30.114Z,4.40
2023-05-09T00:59:01.734Z,4.28
2023-05-09T00:59:33.370Z,4.90
2023-05-09T01:00:05.684Z,4.68
2023-05-09T01:00:37.281Z,4.78
2023-05-09T01:01:09.046Z,4.65
2023-05-09T01:01:41.157Z,4.93
2023-05-09T01:02:12.822Z,4.47
2023-05-09T01:02:48.314Z,4.20
2023-05-09T01:03:20.043Z,4.40
2023-05-09T01:03:53.061Z,4.43
2023-05-09T01:04:24.910Z,4.53
2023-05-09T01:04:56.905Z,4.55
2023-05-09T01:05:43.866Z,4.18
2023-05-09T01:06:39.641Z,4.75
2023-05-09T01:07:25.515Z,4.32
2023-05-09T01:08:09.112Z,4.45
2023-05-09T01:08:49.780Z,4.75
2023-05-09T01:09:58.429Z,4.50
2023-05-09T01:11:14.971Z,4.40
2023-05-09T01:12:04.749Z,4.18
2023-05-09T01:13:13.356Z,4.40
2023-05-09T01:13:54.640Z,4.38
2023-05-09T01:14:52.113Z,4.13
2023-05-09T01:15:51.784Z,4.15
2023-05-09T01:16:45.981Z,3.42
2023-05-09T01:17:26.067Z,4.07
2023-05-09T01:18:26.113Z,4.40
2023-05-09T01:19:06.673Z,4.03
2023-05-09T01:19:44.233Z,4.53
2023-05-09T01:20:27.729Z,4.30
2023-05-09T01:21:07.359Z,4.68
2023-05-09T01:21:42.627Z,4.22
2023-05-09T01:22:16.782Z,4.15
2023-05-09T01:23:19.321Z,4.20
2023-05-09T01:23:59.672Z,4.13
2023-05-09T01:25:08.299Z,4.85
2023-05-09T01:26:03.488Z,4.13
2023-05-09T01:27:10.446Z,4.50
2023-05-09T01:27:57.590Z,4.38
2023-05-09T01:28:56.982Z,4.18
2023-05-09T01:29:36.645Z,4.03
2023-05-09T01:30:10.545Z,4.60
2023-05-09T01:30:45.631Z,4.40
2023-05-09T01:31:17.783Z,4.47
2023-05-09T01:31:50.818Z,4.57
2023-05-09T01:32:28.813Z,4.40
2023-05-09T01:33:05.707Z,4.80
2023-05-09T01:33:40.567Z,4.50
2023-05-09T01:34:15.170Z,4.70
2023-05-09T01:34:49.694Z,4.57
2023-05-09T01:35:26.322Z,4.60
2023-05-09T01:36:04.500Z,4.53
2023-05-09T01:36:38.292Z,4.78
2023-05-09T01:37:12.921Z,4.78
2023-05-09T01:37:50.503Z,5.05
2023-05-09T01:38:25.425Z,4.97
2023-05-09T01:38:58.629Z,4.70
2023-05-09T01:39:32.903Z,4.60
2023-05-09T01:40:11.983Z,4.60
2023-05-09T01:40:45.822Z,4.90
2023-05-09T01:41:19.249Z,5.07
2023-05-09T01:41:55.301Z,4.63
2023-05-09T01:42:31.918Z,4.88
2023-05-09T01:43:09.973Z,4.55
2023-05-09T01:43:43.077Z,4.57
2023-05-09T01:44:16.256Z,4.60
2023-05-09T01:44:49.704Z,4.60
2023-05-09T01:45:23.025Z,4.55
2023-05-09T01:45:55.921Z,4.65
2023-05-09T01:46:28.826Z,4.25
2023-05-09T01:47:01.787Z,4.72
2023-05-09T01:47:34.797Z,4.68
2023-05-09T01:48:09.733Z,4.22
2023-05-09T01:48:42.770Z,4.53
2023-05-09T01:49:15.864Z,4.45
2023-05-09T01:49:48.182Z,4.40
2023-05-09T01:50:20.803Z,4.40
2023-05-09T01:50:54.888Z,4.50
2023-05-09T01:51:27.540Z,4.18
2023-05-09T01:52:03.879Z,4.38
2023-05-09T01:52:37.225Z,4.60
2023-05-09T01:53:11.654Z,4.88
2023-05-09T01:53:44.361Z,4.80
2023-05-09T01:54:17.744Z,4.30
2023-05-09T01:54:51.302Z,4.47
2023-05-09T01:55:26.223Z,4.63
2023-05-09T01:55:59.500Z,4.22
2023-05-09T01:56:32.296Z,4.47
2023-05-09T01:57:05.428Z,4.43
2023-05-09T01:57:38.906Z,4.30
2023-05-09T01:58:11.559Z,4.63
2023-05-09T01:58:45.436Z,4.70
2023-05-09T01:59:18.455Z,4.90
2023-05-09T01:59:51.259Z,4.50
2023-05-09T02:00:24.482Z,4.40
2023-05-09T02:00:56.654Z,4.80
2023-05-09T02:01:30.409Z,4.43
2023-05-09T02:02:04.607Z,4.60
2023-05-09T02:02:37.161Z,4.57
2023-05-09T02:03:09.319Z,4.43
2023-05-09T02:03:43.008Z,4.70
2023-05-09T02:04:16.329Z,4.72
2023-05-09T02:04:49.199Z,4.95
2023-05-09T02:05:22.165Z,4.35
2023-05-09T02:05:55.667Z,4.70
2023-05-09T02:06:29.963Z,4.45
2023-05-09T02:07:03.140Z,4.60
2023-05-09T02:07:35.373Z,4.65
2023-05-09T02:08:08.604Z,4.35
2023-05-09T02:08:41.356Z,4.80
2023-05-09T02:09:13.268Z,4.95
2023-05-09T02:09:46.332Z,5.20
2023-05-09T02:10:20.798Z,4.40
2023-05-09T02:10:53.247Z,4.90
2023-05-09T02:11:24.978Z,3.92
2023-05-09T02:11:56.616Z,4.45
2023-05-09T02:12:28.595Z,4.53
2023-05-09T02:13:00.255Z,4.38
2023-05-09T02:13:32.165Z,4.82
2023-05-09T02:14:03.769Z,4.60
2023-05-09T02:14:35.749Z,4.80
2023-05-09T02:15:08.911Z,4.53
2023-05-09T02:15:40.902Z,4.60
2023-05-09T02:16:12.905Z,4.60
2023-05-09T02:17:17.352Z,4.45
2023-05-09T02:17:49.023Z,4.28
2023-05-09T02:18:20.652Z,4.60
2023-05-09T02:18:52.461Z,4.68
2023-05-09T02:19:24.092Z,4.70
2023-05-09T02:19:55.687Z,4.22
2023-05-09T02:20:27.268Z,4.72
2023-05-09T02:20:58.881Z,4.50
2023-05-09T02:21:30.814Z,4.80
2023-05-09T02:22:04.798Z,4.32
2023-05-09T02:22:36.821Z,4.53
2023-05-09T02:23:09.240Z,4.28
2023-05-09T02:23:41.076Z,4.47
2023-05-09T02:24:12.849Z,4.55
2023-05-09T02:24:45.703Z,4.47
2023-05-09T02:25:18.672Z,4.68
2023-05-09T02:25:51.529Z,4.63
2023-05-09T02:26:23.502Z,4.32
2023-05-09T02:26:56.510Z,4.78
2023-05-09T02:27:28.314Z,4.80
2023-05-09T02:28:00.798Z,4.57
2023-05-09T02:28:32.867Z,4.22
2023-05-09T02:29:06.938Z,4.35
2023-05-09T02:30:07.588Z,4.25
2023-05-09T02:30:43.316Z,4.38
2023-05-09T02:31:18.974Z,4.10
2023-05-09T02:31:53.154Z,4.38
2023-05-09T02:32:28.881Z,4.00
2023-05-09T02:33:05.207Z,4.03
2023-05-09T02:33:38.761Z,4.05
2023-05-09T02:34:11.624Z,4.60
2023-05-09T02:34:45.164Z,4.40
2023-05-09T02:35:17.903Z,4.93
2023-05-09T02:35:50.371Z,4.53
2023-05-09T02:36:23.550Z,4.13
2023-05-09T02:36:55.358Z,4.43
2023-05-09T02:37:27.545Z,4.50
2023-05-09T02:38:00.343Z,4.63
2023-05-09T02:38:32.232Z,4.72
2023-05-09T02:39:04.041Z,4.40
2023-05-09T02:39:36.481Z,4.70
2023-05-09T02:40:09.547Z,4.82
2023-05-09T02:40:43.614Z,4.90
2023-05-09T02:41:16.238Z,4.43
2023-05-09T02:41:49.503Z,4.50
2023-05-09T02:42:25.487Z,4.80
2023-05-09T02:42:57.653Z,4.43
2023-05-09T02:43:29.237Z,4.63
2023-05-09T02:44:00.877Z,4.55
2023-05-09T02:44:33.114Z,4.15
2023-05-09T02:45:05.204Z,4.43
2023-05-09T02:45:37.085Z,4.47
2023-05-09T02:46:10.045Z,4.53
2023-05-09T02:46:41.751Z,4.35
2023-05-09T02:47:13.356Z,5.00
2023-05-09T02:47:44.966Z,4.63
2023-05-09T02:48:16.678Z,4.72
2023-05-09T02:48:48.369Z,4.35
2023-05-09T02:49:31.597Z,4.22
2023-05-09T02:50:05.216Z,4.70
2023-05-09T02:50:38.567Z,4.53
2023-05-09T02:51:10.217Z,4.60
2023-05-09T02:51:41.838Z,4.43
2023-05-09T02:52:13.874Z,4.65
2023-05-09T02:52:46.008Z,4.35
2023-05-09T02:53:17.600Z,4.10
2023-05-09T02:53:49.327Z,4.70
2023-05-09T02:54:21.786Z,4.57
2023-05-09T02:54:53.377Z,4.50
2023-05-09T02:55:24.969Z,4.35
2023-05-09T02:55:56.695Z,4.15
2023-05-09T02:56:28.301Z,4.60
2023-05-09T02:56:59.924Z,4.35
2023-05-09T02:57:31.553Z,4.60
2023-05-09T02:58:13.347Z,4.57
2023-05-09T02:58:51.344Z,4.30
2023-05-09T02:59:23.214Z,4.63
2023-05-09T02:59:54.838Z,4.25
2023-05-09T03:00:26.483Z,4.25
2023-05-09T03:00:58.052Z,4.80
2023-05-09T03:01:29.938Z,5.10
2023-05-09T03:02:01.765Z,4.30
2023-05-09T03:02:33.433Z,4.97
2023-05-09T03:03:05.266Z,5.05
2023-05-09T03:03:37.184Z,4.65
2023-05-09T03:04:08.845Z,4.90
2023-05-09T03:04:41.267Z,4.90
2023-05-09T03:05:13.066Z,4.82
2023-05-09T03:05:44.890Z,4.85
2023-05-09T03:06:16.521Z,5.43
2023-05-09T03:06:48.160Z,5.18
2023-05-09T03:07:19.927Z,4.55
2023-05-09T03:07:52.005Z,4.80
2023-05-09T03:08:23.596Z,4.93
2023-05-09T03:08:55.183Z,5.20
2023-05-09T03:09:26.765Z,4.95
2023-05-09T03:09:58.373Z,4.80
2023-05-09T03:10:29.986Z,4.63
2023-05-09T03:11:01.607Z,5.03
2023-05-09T03:11:33.815Z,4.88
2023-05-09T03:12:05.834Z,4.50
2023-05-09T03:12:38.587Z,4.75
2023-05-09T03:13:10.855Z,4.80
2023-05-09T03:13:42.469Z,4.63
2023-05-09T03:14:15.014Z,5.47
2023-05-09T03:14:47.075Z,4.65
2023-05-09T03:15:18.790Z,4.00
2023-05-09T03:15:50.509Z,4.88
2023-05-09T03:16:22.583Z,4.68
2023-05-09T03:16:54.252Z,4.70
2023-05-09T03:17:25.985Z,4.47
2023-05-09T03:17:58.027Z,4.55
2023-05-09T03:18:29.636Z,5.00
2023-05-09T03:19:01.265Z,4.88
2023-05-09T03:19:33.057Z,4.70
2023-05-09T03:20:05.847Z,4.43
2023-05-09T03:20:37.541Z,4.80
2023-05-09T03:21:09.155Z,4.70
2023-05-09T03:21:41.541Z,4.93
2023-05-09T03:22:13.147Z,5.05
2023-05-09T03:22:44.851Z,4.93
2023-05-09T03:23:16.583Z,4.35
2023-05-09T03:23:48.220Z,4.40
2023-05-09T03:24:19.855Z,4.53
2023-05-09T03:24:51.573Z,4.47
2023-05-09T03:25:23.307Z,5.10
2023-05-09T03:25:55.067Z,4.50
2023-05-09T03:26:26.753Z,4.57
2023-05-09T03:26:58.385Z,4.30
2023-05-09T03:27:30.030Z,4.45
2023-05-09T03:28:01.712Z,5.20
2023-05-09T03:28:33.350Z,4.70
2023-05-09T03:29:05.357Z,4.03
2023-05-09T03:29:37.148Z,4.55
2023-05-09T03:30:09.191Z,4.53
2023-05-09T03:30:40.769Z,4.05
2023-05-09T03:31:12.438Z,4.80
2023-05-09T03:31:44.147Z,4.35
2023-05-09T03:32:15.859Z,4.93
2023-05-09T03:32:47.539Z,4.90
2023-05-09T03:33:19.365Z,4.68
2023-05-09T03:33:51.172Z,4.80
2023-05-09T03:34:22.870Z,5.00
2023-05-09T03:34:54.872Z,5.10
2023-05-09T03:35:26.651Z,4.45
2023-05-09T03:35:58.256Z,4.45
2023-05-09T03:36:29.980Z,4.90
2023-05-09T03:37:01.739Z,5.07
2023-05-09T03:37:33.309Z,5.07
2023-05-09T03:38:05.784Z,5.07
2023-05-09T03:38:37.604Z,4.95
2023-05-09T03:39:10.082Z,4.30
2023-05-09T03:39:41.818Z,5.25
2023-05-09T03:40:13.581Z,4.97
2023-05-09T03:40:45.344Z,5.03
2023-05-09T03:41:18.808Z,5.13
2023-05-09T03:41:50.633Z,4.90
2023-05-09T03:42:23.216Z,4.70
2023-05-09T03:42:54.809Z,4.85
2023-05-09T03:43:26.613Z,4.80
2023-05-09T03:43:58.306Z,5.03
2023-05-09T03:44:29.912Z,4.72
2023-05-09T03:45:01.501Z,5.13
2023-05-09T03:45:33.125Z,4.50
2023-05-09T03:46:04.837Z,5.03
2023-05-09T03:46:36.480Z,5.10
2023-05-09T03:47:08.159Z,5.22
2023-05-09T03:47:40.008Z,5.10
2023-05-09T03:48:12.127Z,4.80
2023-05-09T03:48:43.773Z,4.43
2023-05-09T03:49:15.336Z,5.10
2023-05-09T03:49:47.108Z,4.88
2023-05-09T03:50:18.937Z,5.10
2023-05-09T03:50:50.985Z,5.00
2023-05-09T03:51:22.638Z,5.32
2023-05-09T03:51:54.298Z,5.22
2023-05-09T03:52:25.952Z,5.20
2023-05-09T03:52:57.566Z,4.75
2023-05-09T03:53:29.171Z,4.82
2023-05-09T03:54:01.241Z,4.68
2023-05-09T03:54:32.881Z,4.80
2023-05-09T03:55:06.003Z,4.90
2023-05-09T03:55:37.707Z,4.63
2023-05-09T03:56:09.375Z,4.90
2023-05-09T03:56:41.012Z,4.85
2023-05-09T03:57:12.606Z,5.30
2023-05-09T03:57:44.210Z,5.20
2023-05-09T03:58:15.935Z,5.00
2023-05-09T03:58:47.627Z,5.40
2023-05-09T03:59:19.226Z,5.35
2023-05-09T03:59:51.354Z,4.97
2023-05-09T04:00:23.188Z,4.78
2023-05-09T04:00:55.150Z,5.22
2023-05-09T04:01:26.846Z,5.28
2023-05-09T04:01:58.497Z,4.80
2023-05-09T04:02:30.327Z,4.95
2023-05-09T04:03:02.259Z,4.85
2023-05-09T04:03:34.046Z,4.70
2023-05-09T04:04:05.991Z,5.25
2023-05-09T04:04:37.723Z,4.90
2023-05-09T04:05:09.566Z,5.28
2023-05-09T04:05:41.785Z,4.70
2023-05-09T04:06:13.410Z,4.68
2023-05-09T04:06:44.988Z,5.07
2023-05-09T04:07:16.653Z,4.50
2023-05-09T04:07:48.345Z,4.68
2023-05-09T04:08:19.995Z,4.85
2023-05-09T04:08:51.684Z,4.82
2023-05-09T04:09:23.520Z,5.03
2023-05-09T04:09:56.109Z,4.60
2023-05-09T04:10:27.718Z,4.72
2023-05-09T04:10:59.636Z,5.10
2023-05-09T04:11:31.248Z,4.80
2023-05-09T04:12:02.932Z,4.88
2023-05-09T04:12:34.756Z,5.00
2023-05-09T04:13:06.457Z,4.70
2023-05-09T04:13:38.163Z,4.32
2023-05-09T04:14:09.811Z,4.85
2023-05-09T04:14:41.518Z,4.82
2023-05-09T04:15:13.506Z,4.90
2023-05-09T04:15:45.631Z,4.95
2023-05-09T04:16:17.304Z,4.80
2023-05-09T04:16:49.020Z,4.15
2023-05-09T04:17:20.673Z,4.65
2023-05-09T04:17:52.273Z,5.00
2023-05-09T04:18:23.999Z,4.97
2023-05-09T04:18:55.778Z,4.72
2023-05-09T04:19:27.390Z,4.85
2023-05-09T04:19:59.107Z,5.15
2023-05-09T04:20:31.413Z,5.18
2023-05-09T04:21:03.436Z,5.30
2023-05-09T04:21:35.442Z,4.90
2023-05-09T04:22:07.082Z,4.80
2023-05-09T04:22:38.818Z,4.97
2023-05-09T04:23:10.524Z,5.35
2023-05-09T04:23:43.705Z,5.38
2023-05-09T04:24:15.337Z,5.10
2023-05-09T04:24:46.933Z,4.78
2023-05-09T04:25:20.555Z,4.90
2023-05-09T04:25:53.972Z,5.10
2023-05-09T04:26:25.934Z,5.10
2023-05-09T04:26:57.855Z,4.97
2023-05-09T04:27:29.582Z,5.15
2023-05-09T04:28:01.387Z,4.53
2023-05-09T04:28:33.046Z,4.50
2023-05-09T04:29:04.828Z,5.00
2023-05-09T04:29:36.469Z,5.05
2023-05-09T04:30:09.485Z,4.93
2023-05-09T04:30:41.365Z,4.70
2023-05-09T04:31:14.920Z,4.60
2023-05-09T04:31:46.756Z,4.35
2023-05-09T04:32:18.637Z,4.50
2023-05-09T04:32:50.349Z,4.60
2023-05-09T04:33:24.226Z,4.75
2023-05-09T04:33:56.136Z,4.70
2023-05-09T04:34:31.814Z,4.65
2023-05-09T04:35:04.150Z,4.55
2023-05-09T04:35:35.734Z,4.68
2023-05-09T04:36:08.115Z,5.07
2023-05-09T04:36:39.727Z,5.18
2023-05-09T04:37:11.304Z,4.97
2023-05-09T04:37:42.988Z,4.32
2023-05-09T04:38:14.596Z,4.90
2023-05-09T04:38:46.571Z,4.53
2023-05-09T04:39:18.153Z,4.53
2023-05-09T04:39:49.727Z,4.90
2023-05-09T04:40:21.723Z,5.20
2023-05-09T04:40:53.337Z,4.80
2023-05-09T04:41:25.060Z,5.13
2023-05-09T04:41:56.666Z,4.63
2023-05-09T04:42:28.256Z,5.55
2023-05-09T04:42:59.818Z,4.13
2023-05-09T04:43:32.658Z,4.05
2023-05-09T04:44:04.539Z,4.10
2023-05-09T04:44:36.249Z,4.15
2023-05-09T04:45:08.516Z,4.47
2023-05-09T04:45:40.704Z,5.45
2023-05-09T04:46:12.355Z,4.63
2023-05-09T04:46:44.187Z,4.63
2023-05-09T04:47:15.962Z,4.93
2023-05-09T04:47:47.644Z,4.45
2023-05-09T04:48:19.387Z,4.00
2023-05-09T04:48:51.198Z,4.18
2023-05-09T04:49:22.827Z,4.63
2023-05-09T04:49:54.614Z,4.38
2023-05-09T04:50:26.339Z,4.63
2023-05-09T04:50:57.927Z,4.70
2023-05-09T04:51:29.492Z,3.97
2023-05-09T04:52:01.093Z,3.75
2023-05-09T04:52:32.717Z,3.95
2023-05-09T04:53:04.341Z,3.97
2023-05-09T04:53:35.991Z,3.80
2023-05-09T04:54:07.657Z,3.65
2023-05-09T04:54:39.505Z,3.45
2023-05-09T04:55:11.145Z,3.50
2023-05-09T04:55:42.790Z,3.75
2023-05-09T04:56:14.414Z,3.45
2023-05-09T04:56:47.393Z,3.17
2023-05-09T04:57:21.460Z,3.45
2023-05-09T04:57:53.034Z,3.58
2023-05-09T04:58:25.818Z,3.78
2023-05-09T04:58:57.390Z,3.00
2023-05-09T04:59:29.041Z,3.00
2023-05-09T05:00:00.649Z,3.85
2023-05-09T05:00:32.342Z,3.30
2023-05-09T05:01:05.833Z,3.47
2023-05-09T05:01:37.481Z,3.35
2023-05-09T05:02:09.091Z,3.55
2023-05-09T05:02:40.912Z,3.50
2023-05-09T05:03:12.875Z,3.50
2023-05-09T05:03:46.208Z,3.60
2023-05-09T05:04:17.906Z,3.42
2023-05-09T05:04:49.735Z,3.33
2023-05-09T05:05:25.055Z,3.30
2023-05-09T05:05:56.986Z,3.40
2023-05-09T05:06:28.579Z,3.50
2023-05-09T05:07:00.532Z,3.45
2023-05-09T05:07:32.120Z,3.20
2023-05-09T05:08:04.138Z,3.30
2023-05-09T05:08:35.745Z,3.40
2023-05-09T05:09:07.484Z,3.10
2023-05-09T05:09:39.267Z,3.65
2023-05-09T05:10:10.966Z,2.95
2023-05-09T05:10:42.658Z,3.15
2023-05-09T05:11:14.268Z,3.55
2023-05-09T05:11:58.453Z,3.50
2023-05-09T05:12:32.615Z,3.25
2023-05-09T05:13:04.264Z,3.08
2023-05-09T05:13:35.851Z,3.30
2023-05-09T05:14:07.490Z,3.17
2023-05-09T05:14:39.097Z,3.22
2023-05-09T05:15:11.186Z,3.50
2023-05-09T05:15:43.212Z,3.30
2023-05-09T05:16:14.887Z,3.10
2023-05-09T05:16:46.507Z,3.40
2023-05-09T05:17:18.437Z,3.05
2023-05-09T05:17:50.486Z,3.13
2023-05-09T05:18:22.661Z,3.03
2023-05-09T05:18:54.247Z,3.22
2023-05-09T05:19:26.136Z,2.95
2023-05-09T05:19:58.597Z,3.53
2023-05-09T05:20:30.166Z,3.70
2023-05-09T05:21:01.781Z,3.25
2023-05-09T05:21:33.381Z,3.25
2023-05-09T05:22:05.135Z,2.97
2023-05-09T05:22:36.992Z,3.35
2023-05-09T05:23:09.134Z,3.67
2023-05-09T05:23:40.765Z,3.50
2023-05-09T05:24:12.437Z,3.40
2023-05-09T05:24:44.020Z,3.53
2023-05-09T05:25:17.476Z,3.40
2023-05-09T05:25:49.223Z,3.00
2023-05-09T05:26:21.105Z,2.85
2023-05-09T05:26:52.791Z,2.92
2023-05-09T05:27:24.393Z,3.08
2023-05-09T05:27:56.006Z,2.97
2023-05-09T05:28:27.641Z,3.22
2023-05-09T05:28:59.281Z,3.00
2023-05-09T05:29:30.938Z,3.13
2023-05-09T05:30:02.635Z,2.97
2023-05-09T05:30:34.625Z,3.33
2023-05-09T05:31:06.449Z,2.97
2023-05-09T05:31:38.217Z,3.40
2023-05-09T05:32:10.756Z,3.42
2023-05-09T05:32:43.718Z,2.97
2023-05-09T05:33:15.627Z,3.00
2023-05-09T05:33:47.379Z,3.13
2023-05-09T05:34:19.068Z,3.33
2023-05-09T05:34:50.687Z,2.70
2023-05-09T05:35:23.467Z,3.15
2023-05-09T05:35:55.128Z,3.47
2023-05-09T05:36:26.719Z,3.20
2023-05-09T05:36:58.283Z,3.38
2023-05-09T05:37:29.874Z,2.50
2023-05-09T05:38:01.853Z,3.03
2023-05-09T05:38:33.532Z,3.17
2023-05-09T05:39:05.148Z,2.85
2023-05-09T05:39:36.787Z,3.53
2023-05-09T05:40:09.066Z,3.13
2023-05-09T05:40:40.960Z,3.10
2023-05-09T05:41:12.559Z,2.97
2023-05-09T05:41:44.197Z,3.00
2023-05-09T05:42:15.775Z,2.80
2023-05-09T05:42:47.356Z,2.70
2023-05-09T05:43:18.962Z,3.17
2023-05-09T05:43:52.834Z,2.85
2023-05-09T05:44:25.827Z,3.30
2023-05-09T05:44:57.641Z,2.95
2023-05-09T05:45:30.368Z,3.08
2023-05-09T05:46:02.000Z,3.22
2023-05-09T05:46:33.749Z,3.42
2023-05-09T05:47:05.650Z,2.88
2023-05-09T05:47:37.594Z,3.20
2023-05-09T05:48:09.569Z,3.33
2023-05-09T05:48:41.205Z,3.00
2023-05-09T05:49:12.861Z,3.00
2023-05-09T05:49:44.741Z,2.85
2023-05-09T05:50:16.342Z,2.40
2023-05-09T05:50:47.968Z,3.08
2023-05-09T05:51:19.751Z,2.65
2023-05-09T05:51:51.601Z,3.20
2023-05-09T05:52:23.239Z,2.90
2023-05-09T05:52:55.100Z,3.20
2023-05-09T05:53:26.704Z,2.95
2023-05-09T05:53:58.356Z,3.03
2023-05-09T05:54:30.007Z,2.92
2023-05-09T05:55:01.601Z,2.83
2023-05-09T05:55:33.249Z,2.88
2023-05-09T05:56:05.201Z,2.72
2023-05-09T05:56:36.981Z,2.60
2023-05-09T05:57:08.652Z,3.53
2023-05-09T05:57:40.395Z,3.10
2023-05-09T05:58:12.027Z,2.90
2023-05-09T05:58:43.778Z,2.83
2023-05-09T05:59:16.309Z,2.60
2023-05-09T05:59:48.467Z,2.80
2023-05-09T06:00:20.797Z,3.03
2023-05-09T06:00:53.105Z,2.40
2023-05-09T06:01:24.805Z,2.92
2023-05-09T06:01:56.450Z,2.92
2023-05-09T06:02:28.198Z,2.88
2023-05-09T06:03:00.239Z,2.92
2023-05-09T06:03:32.149Z,2.90
2023-05-09T06:04:04.171Z,2.75
2023-05-09T06:04:35.764Z,2.83
2023-05-09T06:05:08.553Z,2.83
2023-05-09T06:05:47.482Z,3.08
2023-05-09T06:06:19.337Z,2.92
2023-05-09T06:06:51.196Z,2.70
2023-05-09T06:07:23.117Z,2.88
2023-05-09T06:07:55.051Z,2.80
2023-05-09T06:08:26.822Z,2.78
2023-05-09T06:08:58.498Z,2.92
2023-05-09T06:09:30.102Z,2.63
2023-05-09T06:10:01.752Z,2.78
2023-05-09T06:10:33.325Z,2.60
2023-05-09T06:11:06.020Z,2.45
2023-05-09T06:11:37.750Z,2.60
2023-05-09T06:12:09.519Z,2.83
2023-05-09T06:12:41.240Z,2.72
2023-05-09T06:13:12.924Z,2.55
2023-05-09T06:13:44.948Z,3.05
2023-05-09T06:14:16.549Z,3.30
2023-05-09T06:14:48.219Z,2.80
2023-05-09T06:15:19.858Z,2.47
2023-05-09T06:15:51.560Z,2.67
2023-05-09T06:16:23.342Z,2.85
2023-05-09T06:16:55.115Z,2.60
2023-05-09T06:17:27.209Z,2.60
2023-05-09T06:17:59.769Z,2.83
2023-05-09T06:18:31.452Z,3.00
2023-05-09T06:19:03.115Z,2.60
2023-05-09T06:19:34.707Z,2.60
2023-05-09T06:20:07.220Z,2.72
2023-05-09T06:20:38.850Z,2.97
2023-05-09T06:21:10.492Z,3.00
2023-05-09T06:21:42.085Z,2.83
2023-05-09T06:22:13.700Z,2.85
2023-05-09T06:22:45.342Z,3.10
2023-05-09T06:23:22.087Z,2.97
2023-05-09T06:24:35.996Z,2.72
2023-05-09T06:25:10.482Z,2.65
2023-05-09T06:25:42.343Z,2.83
2023-05-09T06:26:14.895Z,2.53
2023-05-09T06:26:46.532Z,2.92
2023-05-09T06:27:18.243Z,2.90
2023-05-09T06:27:49.832Z,2.75
2023-05-09T06:28:21.422Z,2.90
2023-05-09T06:28:53.092Z,3.10
2023-05-09T06:29:24.688Z,2.30
2023-05-09T06:29:56.502Z,2.90
2023-05-09T06:30:28.216Z,2.45
2023-05-09T06:31:00.936Z,3.17
2023-05-09T06:31:33.605Z,3.50
2023-05-09T06:32:05.800Z,2.90
2023-05-09T06:32:37.412Z,3.00
2023-05-09T06:33:09.164Z,2.90
2023-05-09T06:33:41.176Z,2.53
2023-05-09T06:34:12.784Z,2.90
2023-05-09T06:34:44.349Z,2.97
2023-05-09T06:35:16.207Z,3.00
2023-05-09T06:35:48.616Z,3.07
2023-05-09T06:36:20.500Z,2.95
2023-05-09T06:36:52.584Z,2.72
2023-05-09T06:37:24.326Z,3.10
2023-05-09T06:37:56.001Z,3.28
2023-05-09T06:38:27.616Z,2.70
2023-05-09T06:38:59.951Z,2.67
2023-05-09T06:39:31.570Z,2.83
2023-05-09T06:40:03.456Z,3.40
2023-05-09T06:40:35.125Z,2.70
2023-05-09T06:41:06.727Z,3.23
2023-05-09T06:41:38.343Z,3.05
2023-05-09T06:42:10.103Z,2.90
2023-05-09T06:42:41.702Z,3.08
2023-05-09T06:43:13.288Z,2.90
2023-05-09T06:43:44.911Z,3.00
2023-05-09T06:44:16.496Z,3.10
2023-05-09T06:44:48.200Z,3.45
2023-05-09T06:45:20.334Z,3.08
2023-05-09T06:45:52.753Z,2.55
2023-05-09T06:46:24.567Z,2.90
2023-05-09T06:46:56.398Z,2.92
2023-05-09T06:47:28.101Z,2.85
2023-05-09T06:47:59.720Z,3.08
2023-05-09T06:48:31.398Z,2.90
2023-05-09T06:49:03.096Z,2.63
2023-05-09T06:49:34.713Z,2.85
2023-05-09T06:50:07.134Z,3.08
2023-05-09T06:50:38.712Z,2.90
2023-05-09T06:51:11.580Z,2.70
2023-05-09T06:51:43.167Z,2.47
2023-05-09T06:52:15.913Z,2.83
2023-05-09T06:52:47.548Z,3.20
2023-05-09T06:53:19.163Z,2.67
2023-05-09T06:53:51.071Z,2.88
2023-05-09T06:54:22.722Z,2.85
2023-05-09T06:54:54.384Z,3.10
2023-05-09T06:55:26.061Z,2.70
2023-05-09T06:55:57.780Z,2.83
2023-05-09T06:56:29.559Z,2.72
2023-05-09T06:57:01.277Z,2.80
2023-05-09T06:57:32.989Z,2.70
2023-05-09T06:58:04.623Z,2.80
2023-05-09T06:58:36.599Z,2.90
2023-05-09T06:59:08.388Z,2.90
2023-05-09T06:59:40.099Z,3.30
2023-05-09T07:00:19.154Z,2.65
2023-05-09T07:00:51.616Z,2.92
2023-05-09T07:01:23.437Z,3.10
2023-05-09T07:01:55.873Z,3.20
2023-05-09T07:02:27.602Z,3.10
2023-05-09T07:02:59.336Z,3.50
2023-05-09T07:03:31.181Z,2.72
2023-05-09T07:04:02.790Z,3.00
2023-05-09T07:04:34.472Z,2.78
2023-05-09T07:05:06.508Z,2.85
2023-05-09T07:05:38.170Z,3.08
2023-05-09T07:06:10.018Z,3.00
2023-05-09T07:06:41.925Z,3.28
2023-05-09T07:07:13.526Z,2.90
2023-05-09T07:07:45.197Z,2.90
2023-05-09T07:08:16.821Z,2.90
2023-05-09T07:08:48.814Z,2.80
2023-05-09T07:09:20.761Z,3.10
2023-05-09T07:09:55.277Z,2.90
2023-05-09T07:10:32.720Z,2.70
2023-05-09T07:11:04.889Z,3.03
2023-05-09T07:11:36.964Z,2.90
2023-05-09T07:12:08.633Z,2.80
2023-05-09T07:12:41.036Z,3.15
2023-05-09T07:13:13.468Z,2.33
2023-05-09T07:13:45.180Z,3.30
2023-05-09T07:14:17.072Z,2.30
2023-05-09T07:14:48.744Z,2.55
2023-05-09T07:15:32.393Z,2.70
2023-05-09T07:16:08.895Z,2.55
2023-05-09T07:16:40.590Z,2.50
2023-05-09T07:17:22.235Z,2.60
2023-05-09T07:17:55.547Z,2.92
2023-05-09T07:18:27.215Z,2.28
2023-05-09T07:18:58.793Z,2.60
2023-05-09T07:19:30.401Z,2.80
2023-05-09T07:20:04.144Z,3.13
2023-05-09T07:20:35.719Z,3.13